Wetterdaten: Woche 27.08.18 - 02.09.18 (KW35)
Datum Zeit Temp. Aussen Temp. o. S. +5cm Feuchte Auss Luftdruck Regen Sonnenschein Regendauer Solar Windben Empfang
27.08.2018 00:00 16,5 C 13,5 C 13,5 C 69 % 1008,6 hPa 0,2 l/m 0,00 h 0,90 h 0 W/m 9,6 km/h (2 Bft) 98,30 %
27.08.2018 01:00 15,2 C 12,3 C 13,1 C 76 % 1008,1 hPa 0,0 l/m 0,00 h 0,47 h 0 W/m 10,6 km/h (2 Bft) 97,00 %
27.08.2018 02:00 15,0 C 12,7 C 13,5 C 79 % 1007,9 hPa 0,0 l/m 0,00 h 0,60 h 0 W/m 8,9 km/h (2 Bft) 96,92 %
27.08.2018 03:00 14,3 C 12,5 C 12,8 C 85 % 1007,1 hPa 0,4 l/m 0,00 h 0,60 h 0 W/m 11,4 km/h (2 Bft) 99,57 %
27.08.2018 04:00 13,6 C 11,9 C 11,9 C 91 % 1006,7 hPa 1,0 l/m 0,00 h 0,65 h 0 W/m 9,9 km/h (2 Bft) 96,85 %
27.08.2018 05:00 13,2 C 12,0 C 12,0 C 94 % 1006,3 hPa 0,8 l/m 0,00 h 0,47 h 0 W/m 8,7 km/h (2 Bft) 95,95 %
27.08.2018 06:00 13,4 C 12,6 C 12,3 C 96 % 1006,3 hPa 0,0 l/m 0,00 h 0,00 h 2 W/m 4,7 km/h (1 Bft) 98,81 %
27.08.2018 07:00 14,4 C 13,8 C 13,5 C 97 % 1006,6 hPa 0,0 l/m 0,00 h 0,00 h 12 W/m 7,2 km/h (2 Bft) 97,89 %
27.08.2018 08:00 15,1 C 14,4 C 14,3 C 98 % 1007,1 hPa 0,0 l/m 0,00 h 0,00 h 33 W/m 6,0 km/h (2 Bft) 96,95 %
27.08.2018 09:00 15,8 C 15,2 C 15,4 C 97 % 1007,3 hPa 0,0 l/m 0,00 h 0,07 h 87 W/m 8,8 km/h (2 Bft) 96,72 %
27.08.2018 10:00 16,6 C 15,9 C 15,5 C 97 % 1007,8 hPa 0,0 l/m 0,00 h 0,37 h 175 W/m 8,9 km/h (2 Bft) 97,92 %
27.08.2018 11:00 18,1 C 18,9 C 17,6 C 94 % 1008,0 hPa 0,0 l/m 0,17 h 0,03 h 254 W/m 10,2 km/h (2 Bft) 98,37 %
27.08.2018 12:00 19,1 C 20,3 C 17,8 C 85 % 1008,3 hPa 0,0 l/m 0,20 h 0,27 h 239 W/m 10,0 km/h (2 Bft) 97,00 %
27.08.2018 13:00 20,5 C 21,4 C 19,0 C 71 % 1008,9 hPa 0,0 l/m 0,57 h 0,00 h 483 W/m 12,5 km/h (3 Bft) 96,08 %
27.08.2018 14:00 21,5 C 21,8 C 19,8 C 65 % 1009,5 hPa 0,0 l/m 0,60 h 0,00 h 471 W/m 12,0 km/h (2 Bft) 99,36 %
27.08.2018 15:00 21,0 C 21,1 C 19,5 C 66 % 1010,3 hPa 0,0 l/m 0,40 h 0,00 h 295 W/m 11,1 km/h (2 Bft) 97,26 %
27.08.2018 16:00 21,1 C 21,1 C 19,6 C 64 % 1011,0 hPa 0,0 l/m 0,37 h 0,00 h 261 W/m 11,0 km/h (2 Bft) 95,72 %
27.08.2018 17:00 20,5 C 20,2 C 19,0 C 67 % 1011,6 hPa 0,0 l/m 0,23 h 0,00 h 190 W/m 10,4 km/h (2 Bft) 99,65 %
27.08.2018 18:00 20,0 C 19,1 C 18,3 C 70 % 1012,1 hPa 0,0 l/m 0,00 h 0,00 h 65 W/m 7,4 km/h (2 Bft) 96,93 %
27.08.2018 19:00 18,9 C 17,9 C 17,4 C 73 % 1012,9 hPa 0,0 l/m 0,00 h 0,00 h 22 W/m 8,9 km/h (2 Bft) 96,51 %
27.08.2018 20:00 18,1 C 16,8 C 16,7 C 76 % 1013,8 hPa 0,0 l/m 0,00 h 0,00 h 14 W/m 4,4 km/h (1 Bft) 99,37 %
27.08.2018 21:00 17,1 C 15,3 C 15,4 C 79 % 1014,5 hPa 0,0 l/m 0,00 h 0,00 h 0 W/m 1,8 km/h (1 Bft) 97,52 %
27.08.2018 22:00 16,3 C 15,5 C 15,4 C 81 % 1015,1 hPa 0,0 l/m 0,00 h 0,00 h 0 W/m 0,8 km/h (0 Bft) 95,17 %
27.08.2018 23:00 16,2 C 15,6 C 15,4 C 82 % 1015,5 hPa 0,0 l/m 0,00 h 0,00 h 0 W/m 0,5 km/h (0 Bft) 98,86 %
28.08.2018 00:00 16,4 C 15,7 C 15,7 C 81 % 1015,8 hPa 0,0 l/m 0,00 h 0,00 h 0 W/m 3,1 km/h (1 Bft) 97,07 %
28.08.2018 01:00 16,3 C 15,3 C 15,0 C 82 % 1016,2 hPa 0,0 l/m 0,00 h 0,00 h 0 W/m 1,5 km/h (1 Bft) 97,86 %
28.08.2018 02:00 15,7 C 14,2 C 14,3 C 84 % 1016,5 hPa 0,0 l/m 0,00 h 0,00 h 0 W/m 0,5 km/h (0 Bft) 97,50 %
28.08.2018 03:00 15,0 C 13,6 C 13,6 C 86 % 1016,6 hPa 0,0 l/m 0,00 h 0,00 h 0 W/m 0,8 km/h (0 Bft) 96,15 %
28.08.2018 04:00 14,4 C 13,1 C 13,3 C 88 % 1016,7 hPa 0,0 l/m 0,00 h 0,00 h 0 W/m 0,7 km/h (0 Bft) 98,73 %
28.08.2018 05:00 13,8 C 12,3 C 12,7 C 90 % 1016,8 hPa 0,0 l/m 0,00 h 0,00 h 0 W/m 0,6 km/h (0 Bft) 99,79 %
28.08.2018 06:00 13,2 C 12,1 C 12,5 C 92 % 1017,1 hPa 0,0 l/m 0,00 h 0,00 h 8 W/m 1,7 km/h (1 Bft) 94,71 %
28.08.2018 07:00 12,8 C 12,1 C 12,0 C 92 % 1017,4 hPa 0,0 l/m 0,00 h 0,00 h 30 W/m 0,6 km/h (0 Bft) 97,53 %
28.08.2018 08:00 13,3 C 14,2 C 13,5 C 94 % 1017,8 hPa 0,0 l/m 0,00 h 0,00 h 59 W/m 2,0 km/h (1 Bft) 99,36 %
28.08.2018 09:00 15,0 C 18,8 C 15,1 C 94 % 1018,2 hPa 0,0 l/m 0,70 h 0,00 h 253 W/m 3,8 km/h (1 Bft) 95,87 %
28.08.2018 10:00 18,4 C 24,8 C 16,8 C 82 % 1018,4 hPa 0,0 l/m 1,00 h 0,00 h 443 W/m 7,0 km/h (2 Bft) 97,90 %
28.08.2018 11:00 21,6 C 25,6 C 18,1 C 66 % 1018,3 hPa 0,0 l/m 0,73 h 0,00 h 445 W/m 7,1 km/h (2 Bft) 98,09 %
28.08.2018 12:00 21,9 C 24,1 C 18,9 C 63 % 1017,9 hPa 0,0 l/m 0,23 h 0,00 h 302 W/m 6,6 km/h (2 Bft) 98,30 %
28.08.2018 13:00 21,5 C 22,2 C 19,6 C 64 % 1017,6 hPa 0,0 l/m 0,30 h 0,00 h 332 W/m 7,0 km/h (2 Bft) 96,11 %
28.08.2018 14:00 21,4 C 22,3 C 19,8 C 64 % 1017,4 hPa 0,0 l/m 0,53 h 0,00 h 487 W/m 6,6 km/h (2 Bft) 97,89 %
28.08.2018 15:00 22,4 C 23,0 C 20,6 C 61 % 1016,7 hPa 0,0 l/m 0,60 h 0,00 h 448 W/m 7,7 km/h (2 Bft) 99,22 %
28.08.2018 16:00 23,5 C 24,5 C 21,1 C 58 % 1016,3 hPa 0,0 l/m 0,77 h 0,00 h 415 W/m 7,8 km/h (2 Bft) 95,15 %
28.08.2018 17:00 23,9 C 24,0 C 21,2 C 56 % 1015,6 hPa 0,0 l/m 1,00 h 0,00 h 398 W/m 6,5 km/h (2 Bft) 98,51 %
28.08.2018 18:00 23,6 C 23,0 C 21,0 C 56 % 1015,1 hPa 0,0 l/m 0,67 h 0,00 h 205 W/m 5,2 km/h (1 Bft) 99,01 %
28.08.2018 19:00 22,6 C 20,7 C 19,4 C 60 % 1014,5 hPa 0,0 l/m 0,00 h 0,00 h 44 W/m 1,8 km/h (1 Bft) 95,36 %
28.08.2018 20:00 20,4 C 18,0 C 17,4 C 66 % 1014,3 hPa 0,0 l/m 0,00 h 0,00 h 8 W/m 0,8 km/h (0 Bft) 98,41 %
28.08.2018 21:00 18,4 C 16,4 C 16,0 C 72 % 1014,3 hPa 0,0 l/m 0,00 h 0,00 h 0 W/m 0,6 km/h (0 Bft) 98,48 %
28.08.2018 22:00 17,1 C 15,3 C 15,2 C 75 % 1014,0 hPa 0,0 l/m 0,00 h 0,00 h 0 W/m 0,8 km/h (0 Bft) 95,16 %
28.08.2018 23:00 16,2 C 14,7 C 14,8 C 79 % 1013,4 hPa 0,0 l/m 0,00 h 0,00 h 0 W/m 0,0 km/h (0 Bft) 98,15 %
29.08.2018 00:00 15,4 C 13,8 C 14,0 C 82 % 1013,0 hPa 0,0 l/m 0,00 h 0,00 h 0 W/m 0,0 km/h (0 Bft) 97,09 %
29.08.2018 01:00 14,5 C 13,0 C 13,0 C 84 % 1012,8 hPa 0,0 l/m 0,00 h 0,00 h 0 W/m 0,0 km/h (0 Bft) 98,01 %
29.08.2018 02:00 13,9 C 13,8 C 13,1 C 86 % 1012,7 hPa 0,0 l/m 0,00 h 0,00 h 0 W/m 2,1 km/h (1 Bft) 98,16 %
29.08.2018 03:00 14,2 C 14,0 C 13,8 C 85 % 1012,2 hPa 0,0 l/m 0,00 h 0,00 h 0 W/m 3,8 km/h (1 Bft) 95,78 %
29.08.2018 04:00 14,3 C 13,9 C 13,4 C 84 % 1011,8 hPa 0,0 l/m 0,00 h 0,00 h 0 W/m 4,1 km/h (1 Bft) 97,98 %
29.08.2018 05:00 14,2 C 13,7 C 13,3 C 83 % 1011,7 hPa 0,0 l/m 0,00 h 0,00 h 0 W/m 4,8 km/h (1 Bft) 98,27 %
29.08.2018 06:00 14,1 C 13,3 C 13,3 C 83 % 1011,3 hPa 0,0 l/m 0,00 h 0,00 h 9 W/m 5,2 km/h (1 Bft) 96,65 %
29.08.2018 07:00 13,8 C 13,6 C 13,3 C 84 % 1010,9 hPa 0,0 l/m 0,40 h 0,00 h 44 W/m 4,8 km/h (1 Bft) 97,60 %
29.08.2018 08:00 14,6 C 15,6 C 14,4 C 83 % 1011,5 hPa 0,0 l/m 0,00 h 0,00 h 79 W/m 7,2 km/h (2 Bft) 97,72 %
29.08.2018 09:00 16,8 C 19,8 C 16,1 C 78 % 1011,0 hPa 0,0 l/m 0,70 h 0,00 h 246 W/m 6,6 km/h (2 Bft) 97,37 %
29.08.2018 10:00 20,5 C 26,7 C 18,1 C 69 % 1010,7 hPa 0,0 l/m 1,00 h 0,00 h 438 W/m 5,6 km/h (1 Bft) 98,52 %
29.08.2018 11:00 25,2 C 32,4 C 20,2 C 59 % 1009,9 hPa 0,0 l/m 1,00 h 0,00 h 554 W/m 6,3 km/h (2 Bft) 97,83 %
29.08.2018 12:00 27,0 C 30,0 C 22,1 C 54 % 1010,0 hPa 0,0 l/m 0,57 h 0,00 h 374 W/m 7,4 km/h (2 Bft) 96,73 %
29.08.2018 13:00 27,1 C 27,3 C 23,1 C 54 % 1009,4 hPa 0,0 l/m 0,27 h 0,00 h 314 W/m 6,6 km/h (2 Bft) 96,71 %
29.08.2018 14:00 26,0 C 25,9 C 22,7 C 57 % 1008,3 hPa 0,0 l/m 0,10 h 0,00 h 233 W/m 5,0 km/h (1 Bft) 97,65 %
29.08.2018 15:00 25,4 C 24,3 C 22,2 C 60 % 1009,1 hPa 0,0 l/m 0,00 h 0,53 h 149 W/m 4,0 km/h (1 Bft) 97,30 %
29.08.2018 16:00 24,0 C 19,2 C 19,1 C 73 % 1009,6 hPa 0,6 l/m 0,00 h 1,00 h 59 W/m 2,7 km/h (1 Bft) 96,58 %
29.08.2018 17:00 21,4 C 18,3 C 18,1 C 85 % 1010,0 hPa 0,0 l/m 0,03 h 0,53 h 82 W/m 2,0 km/h (1 Bft) 97,94 %
29.08.2018 18:00 20,6 C 18,0 C 17,9 C 89 % 1009,6 hPa 1,2 l/m 0,00 h 0,20 h 26 W/m 2,9 km/h (1 Bft) 97,93 %
29.08.2018 19:00 19,6 C 17,9 C 17,6 C 92 % 1009,3 hPa 0,0 l/m 0,00 h 0,00 h 28 W/m 0,7 km/h (0 Bft) 98,26 %
29.08.2018 20:00 19,3 C 17,8 C 17,7 C 94 % 1009,5 hPa 2,2 l/m 0,00 h 0,73 h 8 W/m 1,5 km/h (1 Bft) 95,95 %
29.08.2018 21:00 19,0 C 17,8 C 17,2 C 95 % 1009,9 hPa 0,0 l/m 0,00 h 0,00 h 0 W/m 0,5 km/h (0 Bft) 98,43 %
29.08.2018 22:00 18,8 C 17,5 C 17,1 C 96 % 1010,2 hPa 0,0 l/m 0,00 h 0,00 h 0 W/m 3,7 km/h (1 Bft) 98,22 %
29.08.2018 23:00 17,0 C 15,4 C 15,3 C 96 % 1011,5 hPa 0,0 l/m 0,00 h 0,47 h 0 W/m 19,2 km/h (3 Bft) 96,72 %
30.08.2018 00:00 15,3 C 14,0 C 14,0 C 96 % 1013,0 hPa 2,6 l/m 0,00 h 1,00 h 0 W/m 15,8 km/h (3 Bft) 97,84 %
30.08.2018 01:00 14,8 C 13,7 C 13,6 C 97 % 1013,8 hPa 0,2 l/m 0,00 h 0,60 h 0 W/m 12,1 km/h (2 Bft) 97,86 %
30.08.2018 02:00 14,4 C 13,7 C 13,3 C 98 % 1014,8 hPa 0,0 l/m 0,00 h 0,00 h 0 W/m 8,4 km/h (2 Bft) 98,44 %
30.08.2018 03:00 14,5 C 13,9 C 13,3 C 98 % 1015,3 hPa 0,0 l/m 0,00 h 0,00 h 0 W/m 4,0 km/h (1 Bft) 96,65 %
30.08.2018 04:00 14,4 C 13,9 C 13,3 C 98 % 1015,5 hPa 0,0 l/m 0,00 h 0,00 h 0 W/m 3,4 km/h (1 Bft) 97,94 %
30.08.2018 05:00 14,4 C 13,6 C 13,3 C 98 % 1016,0 hPa 0,0 l/m 0,00 h 0,00 h 0 W/m 2,3 km/h (1 Bft) 98,36 %
30.08.2018 06:00 14,2 C 13,6 C 13,3 C 99 % 1016,5 hPa 0,0 l/m 0,00 h 0,00 h 5 W/m 1,4 km/h (1 Bft) 97,08 %
30.08.2018 07:00 14,4 C 13,9 C 13,6 C 99 % 1017,0 hPa 0,0 l/m 0,00 h 0,00 h 25 W/m 3,2 km/h (1 Bft) 96,96 %
30.08.2018 08:00 14,6 C 14,1 C 14,1 C 99 % 1017,5 hPa 0,0 l/m 0,00 h 0,00 h 88 W/m 8,1 km/h (2 Bft) 98,01 %
30.08.2018 09:00 14,8 C 16,3 C 14,5 C 99 % 1018,0 hPa 0,0 l/m 0,50 h 0,00 h 232 W/m 9,1 km/h (2 Bft) 97,34 %
30.08.2018 10:00 15,7 C 19,2 C 15,4 C 96 % 1018,6 hPa 0,0 l/m 0,50 h 0,00 h 318 W/m 11,5 km/h (2 Bft) 97,80 %
30.08.2018 11:00 18,0 C 23,1 C 16,4 C 83 % 1018,8 hPa 0,0 l/m 0,70 h 0,00 h 472 W/m 9,9 km/h (2 Bft) 98,22 %
30.08.2018 12:00 19,5 C 23,4 C 17,3 C 69 % 1018,9 hPa 0,0 l/m 0,27 h 0,00 h 301 W/m 11,5 km/h (2 Bft) 96,06 %
30.08.2018 13:00 19,7 C 20,2 C 17,5 C 65 % 1019,0 hPa 0,0 l/m 0,60 h 0,00 h 475 W/m 14,6 km/h (3 Bft) 97,75 %
30.08.2018 14:00 19,7 C 20,3 C 18,1 C 62 % 1019,2 hPa 0,0 l/m 0,83 h 0,00 h 653 W/m 12,4 km/h (3 Bft) 98,20 %
30.08.2018 15:00 19,6 C 19,6 C 17,7 C 63 % 1019,3 hPa 0,0 l/m 0,20 h 0,00 h 285 W/m 13,8 km/h (3 Bft) 97,92 %
30.08.2018 16:00 20,0 C 21,6 C 18,5 C 59 % 1019,4 hPa 0,0 l/m 0,70 h 0,00 h 444 W/m 10,8 km/h (2 Bft) 96,94 %
30.08.2018 17:00 20,9 C 21,2 C 18,8 C 56 % 1019,3 hPa 0,0 l/m 0,97 h 0,00 h 424 W/m 8,3 km/h (2 Bft) 98,51 %
30.08.2018 18:00 20,7 C 20,3 C 18,7 C 56 % 1019,3 hPa 0,0 l/m 0,83 h 0,00 h 234 W/m 7,8 km/h (2 Bft) 98,16 %
30.08.2018 19:00 19,5 C 18,2 C 17,4 C 60 % 1019,3 hPa 0,0 l/m 0,00 h 0,00 h 47 W/m 9,3 km/h (2 Bft) 95,11 %
30.08.2018 20:00 17,8 C 15,6 C 15,6 C 69 % 1019,7 hPa 0,0 l/m 0,00 h 0,00 h 11 W/m 3,3 km/h (1 Bft) 99,41 %
30.08.2018 21:00 16,1 C 14,0 C 14,4 C 74 % 1020,1 hPa 0,0 l/m 0,00 h 0,00 h 0 W/m 2,7 km/h (1 Bft) 97,79 %
30.08.2018 22:00 14,7 C 12,9 C 13,4 C 80 % 1020,3 hPa 0,0 l/m 0,00 h 0,00 h 0 W/m 1,1 km/h (0 Bft) 96,04 %
30.08.2018 23:00 13,8 C 12,3 C 12,9 C 83 % 1020,4 hPa 0,0 l/m 0,00 h 0,00 h 0 W/m 0,8 km/h (0 Bft) 96,51 %
31.08.2018 00:00 13,0 C 11,7 C 12,3 C 85 % 1020,4 hPa 0,0 l/m 0,00 h 0,00 h 0 W/m 1,5 km/h (1 Bft) 98,35 %
31.08.2018 01:00 12,5 C 11,0 C 11,9 C 87 % 1020,4 hPa 0,0 l/m 0,00 h 0,00 h 0 W/m 0,2 km/h (0 Bft) 97,15 %
31.08.2018 02:00 12,0 C 10,7 C 11,3 C 88 % 1020,3 hPa 0,0 l/m 0,00 h 0,00 h 0 W/m 0,0 km/h (0 Bft) 97,58 %
31.08.2018 03:00 11,7 C 10,6 C 11,3 C 90 % 1020,3 hPa 0,0 l/m 0,00 h 0,00 h 0 W/m 0,0 km/h (0 Bft) 98,37 %
31.08.2018 04:00 11,5 C 10,3 C 10,9 C 91 % 1020,2 hPa 0,0 l/m 0,00 h 0,00 h 0 W/m 0,0 km/h (0 Bft) 95,08 %
31.08.2018 05:00 11,2 C 10,0 C 10,6 C 92 % 1020,1 hPa 0,0 l/m 0,00 h 0,00 h 0 W/m 0,0 km/h (0 Bft) 98,23 %
31.08.2018 06:00 11,1 C 10,3 C 10,9 C 93 % 1020,2 hPa 0,0 l/m 0,00 h 0,00 h 5 W/m 0,4 km/h (0 Bft) 98,59 %
31.08.2018 07:00 11,1 C 10,9 C 11,2 C 93 % 1020,4 hPa 0,0 l/m 0,00 h 0,00 h 31 W/m 0,4 km/h (0 Bft) 97,92 %
31.08.2018 08:00 11,6 C 12,6 C 12,0 C 94 % 1020,8 hPa 0,0 l/m 0,00 h 0,00 h 95 W/m 0,6 km/h (0 Bft) 96,02 %
31.08.2018 09:00 12,9 C 15,5 C 13,3 C 94 % 1021,1 hPa 0,0 l/m 0,33 h 0,00 h 199 W/m 1,7 km/h (1 Bft) 97,30 %
31.08.2018 10:00 15,2 C 19,9 C 14,6 C 86 % 1021,3 hPa 0,0 l/m 1,00 h 0,00 h 328 W/m 6,1 km/h (2 Bft) 97,37 %
31.08.2018 11:00 17,3 C 19,5 C 15,4 C 74 % 1021,2 hPa 0,0 l/m 0,30 h 0,00 h 273 W/m 7,6 km/h (2 Bft) 98,24 %
31.08.2018 12:00 18,0 C 20,7 C 16,3 C 68 % 1021,1 hPa 0,0 l/m 0,63 h 0,00 h 363 W/m 8,7 km/h (2 Bft) 98,20 %
31.08.2018 13:00 18,6 C 19,8 C 17,0 C 64 % 1020,9 hPa 0,0 l/m 1,00 h 0,00 h 467 W/m 8,4 km/h (2 Bft) 96,80 %
31.08.2018 14:00 19,2 C 20,4 C 17,8 C 60 % 1020,6 hPa 0,0 l/m 1,00 h 0,00 h 665 W/m 9,1 km/h (2 Bft) 97,72 %
31.08.2018 15:00 20,2 C 21,0 C 18,4 C 54 % 1020,3 hPa 0,0 l/m 0,43 h 0,00 h 427 W/m 9,2 km/h (2 Bft) 98,03 %
31.08.2018 16:00 20,5 C 20,6 C 18,3 C 53 % 1020,2 hPa 0,0 l/m 0,27 h 0,00 h 245 W/m 9,0 km/h (2 Bft) 96,98 %
31.08.2018 17:00 19,7 C 19,7 C 18,0 C 55 % 1020,3 hPa 0,0 l/m 0,50 h 0,00 h 276 W/m 7,6 km/h (2 Bft) 96,54 %
31.08.2018 18:00 19,7 C 19,6 C 18,2 C 57 % 1020,3 hPa 0,0 l/m 0,73 h 0,00 h 210 W/m 7,4 km/h (2 Bft) 99,15 %
31.08.2018 19:00 19,1 C 17,9 C 17,2 C 58 % 1020,5 hPa 0,0 l/m 0,40 h 0,00 h 58 W/m 8,8 km/h (2 Bft) 97,34 %
31.08.2018 20:00 17,6 C 15,8 C 15,9 C 64 % 1021,0 hPa 0,0 l/m 0,10 h 0,00 h 11 W/m 4,3 km/h (1 Bft) 96,09 %
31.08.2018 21:00 16,2 C 14,4 C 14,6 C 68 % 1021,6 hPa 0,0 l/m 0,00 h 0,00 h 0 W/m 2,1 km/h (1 Bft) 98,43 %
31.08.2018 22:00 15,2 C 13,8 C 14,1 C 72 % 1022,0 hPa 0,0 l/m 0,00 h 0,00 h 0 W/m 3,1 km/h (1 Bft) 98,57 %
31.08.2018 23:00 14,5 C 12,8 C 13,1 C 76 % 1022,2 hPa 0,0 l/m 0,00 h 0,00 h 0 W/m 0,6 km/h (0 Bft) 97,58 %
01.09.2018 00:00 13,2 C 11,2 C 11,5 C 81 % 1022,4 hPa 0,0 l/m 0,00 h 0,00 h 0 W/m 0,0 km/h (0 Bft) 95,57 %
01.09.2018 01:00 11,8 C 9,8 C 10,5 C 85 % 1022,5 hPa 0,0 l/m 0,00 h 0,00 h 0 W/m 0,0 km/h (0 Bft) 98,65 %
01.09.2018 02:00 10,8 C 9,2 C 9,7 C 88 % 1022,6 hPa 0,0 l/m 0,00 h 0,00 h 0 W/m 0,0 km/h (0 Bft) 96,45 %
01.09.2018 03:00 10,1 C 8,7 C 9,4 C 89 % 1022,7 hPa 0,0 l/m 0,00 h 0,00 h 0 W/m 0,1 km/h (0 Bft) 98,60 %
01.09.2018 04:00 9,6 C 8,2 C 9,0 C 91 % 1022,8 hPa 0,0 l/m 0,00 h 0,00 h 0 W/m 0,1 km/h (0 Bft) 98,29 %
01.09.2018 05:00 9,1 C 7,8 C 8,7 C 91 % 1022,8 hPa 0,0 l/m 0,00 h 0,00 h 0 W/m 0,0 km/h (0 Bft) 97,42 %
01.09.2018 06:00 8,7 C 7,2 C 8,3 C 92 % 1023,1 hPa 0,0 l/m 0,00 h 0,00 h 7 W/m 0,0 km/h (0 Bft) 94,64 %
01.09.2018 07:00 8,4 C 8,1 C 8,5 C 92 % 1023,6 hPa 0,0 l/m 0,00 h 0,00 h 24 W/m 0,1 km/h (0 Bft) 99,04 %
01.09.2018 08:00 9,3 C 10,5 C 10,1 C 95 % 1024,2 hPa 0,0 l/m 0,00 h 0,00 h 45 W/m 1,7 km/h (1 Bft) 98,79 %
01.09.2018 09:00 11,8 C 16,4 C 12,9 C 97 % 1024,5 hPa 0,0 l/m 0,63 h 0,00 h 232 W/m 4,0 km/h (1 Bft) 94,92 %
01.09.2018 10:00 15,3 C 24,2 C 14,8 C 88 % 1024,9 hPa 0,0 l/m 1,00 h 0,00 h 457 W/m 6,2 km/h (2 Bft) 98,58 %
01.09.2018 11:00 20,5 C 29,3 C 16,4 C 61 % 1025,1 hPa 0,0 l/m 0,97 h 0,00 h 553 W/m 7,3 km/h (2 Bft) 98,30 %
01.09.2018 12:00 21,9 C 26,3 C 17,5 C 54 % 1024,9 hPa 0,0 l/m 0,27 h 0,00 h 277 W/m 8,3 km/h (2 Bft) 97,44 %
01.09.2018 13:00 19,6 C 19,8 C 17,5 C 55 % 1024,7 hPa 0,0 l/m 0,27 h 0,00 h 327 W/m 8,8 km/h (2 Bft) 97,23 %
01.09.2018 14:00 20,1 C 20,7 C 18,6 C 52 % 1024,4 hPa 0,0 l/m 0,87 h 0,00 h 655 W/m 9,3 km/h (2 Bft) 97,93 %
01.09.2018 15:00 20,8 C 21,1 C 18,9 C 50 % 1024,1 hPa 0,0 l/m 0,53 h 0,00 h 401 W/m 11,5 km/h (2 Bft) 98,09 %
01.09.2018 16:00 21,4 C 23,5 C 19,0 C 49 % 1024,0 hPa 0,0 l/m 0,90 h 0,00 h 571 W/m 11,7 km/h (2 Bft) 96,45 %
01.09.2018 17:00 21,7 C 22,5 C 19,0 C 49 % 1023,9 hPa 0,0 l/m 0,93 h 0,00 h 420 W/m 9,0 km/h (2 Bft) 98,30 %
01.09.2018 18:00 21,3 C 20,2 C 18,2 C 50 % 1023,8 hPa 0,0 l/m 0,40 h 0,00 h 184 W/m 6,1 km/h (2 Bft) 96,42 %
01.09.2018 19:00 19,8 C 18,3 C 17,2 C 54 % 1024,0 hPa 0,0 l/m 0,00 h 0,00 h 43 W/m 3,2 km/h (1 Bft) 98,36 %
01.09.2018 20:00 17,9 C 15,5 C 14,8 C 60 % 1024,2 hPa 0,0 l/m 0,00 h 0,00 h 9 W/m 0,2 km/h (0 Bft) 98,37 %
01.09.2018 21:00 15,8 C 13,9 C 13,2 C 67 % 1024,4 hPa 0,0 l/m 0,00 h 0,00 h 0 W/m 0,0 km/h (0 Bft) 96,08 %
01.09.2018 22:00 14,2 C 12,6 C 12,1 C 73 % 1024,6 hPa 0,0 l/m 0,00 h 0,00 h 0 W/m 0,0 km/h (0 Bft) 96,65 %
01.09.2018 23:00 13,0 C 11,7 C 11,3 C 77 % 1024,6 hPa 0,0 l/m 0,00 h 0,00 h 0 W/m 0,0 km/h (0 Bft) 99,43 %
02.09.2018 00:00 12,1 C 11,3 C 10,9 C 81 % 1024,5 hPa 0,0 l/m 0,00 h 0,00 h 0 W/m 0,2 km/h (0 Bft) 96,47 %
02.09.2018 01:00 12,2 C 12,4 C 12,1 C 87 % 1024,4 hPa 0,0 l/m 0,00 h 0,00 h 0 W/m 1,1 km/h (0 Bft) 98,50 %
02.09.2018 02:00 12,7 C 11,9 C 12,1 C 87 % 1024,2 hPa 0,0 l/m 0,00 h 0,00 h 0 W/m 1,6 km/h (1 Bft) 96,23 %
02.09.2018 03:00 12,5 C 11,7 C 12,0 C 89 % 1024,2 hPa 0,0 l/m 0,00 h 0,00 h 0 W/m 0,5 km/h (0 Bft) 97,59 %
02.09.2018 04:00 12,1 C 11,0 C 11,1 C 90 % 1024,1 hPa 0,0 l/m 0,00 h 0,00 h 0 W/m 0,0 km/h (0 Bft) 97,79 %
02.09.2018 05:00 11,4 C 9,9 C 10,1 C 90 % 1023,8 hPa 0,0 l/m 0,00 h 0,00 h 0 W/m 0,0 km/h (0 Bft) 99,24 %
02.09.2018 06:00 10,4 C 9,0 C 9,2 C 90 % 1023,5 hPa 0,0 l/m 0,00 h 0,00 h 6 W/m 0,0 km/h (0 Bft) 94,66 %
02.09.2018 07:00 9,9 C 9,9 C 9,7 C 92 % 1023,4 hPa 0,0 l/m 0,00 h 0,00 h 23 W/m 0,0 km/h (0 Bft) 97,83 %
02.09.2018 08:00 11,3 C 12,2 C 11,7 C 95 % 1023,7 hPa 0,0 l/m 0,00 h 0,00 h 50 W/m 3,7 km/h (1 Bft) 98,94 %
02.09.2018 09:00 13,0 C 16,9 C 13,5 C 96 % 1023,7 hPa 0,0 l/m 0,63 h 0,00 h 225 W/m 3,6 km/h (1 Bft) 95,39 %
02.09.2018 10:00 16,5 C 24,7 C 16,1 C 86 % 1023,5 hPa 0,0 l/m 1,00 h 0,00 h 449 W/m 7,1 km/h (2 Bft) 98,01 %
02.09.2018 11:00 21,4 C 28,9 C 18,4 C 64 % 1023,2 hPa 0,0 l/m 0,93 h 0,00 h 530 W/m 11,0 km/h (2 Bft) 98,43 %
02.09.2018 12:00 23,2 C 30,3 C 20,1 C 54 % 1022,7 hPa 0,0 l/m 0,40 h 0,00 h 307 W/m 12,0 km/h (2 Bft) 97,93 %
02.09.2018 13:00 23,6 C 23,7 C 21,0 C 52 % 1022,1 hPa 0,0 l/m 0,63 h 0,00 h 521 W/m 12,1 km/h (2 Bft) 95,81 %
02.09.2018 14:00 23,6 C 23,6 C 21,5 C 52 % 1021,5 hPa 0,0 l/m 1,00 h 0,00 h 711 W/m 11,8 km/h (2 Bft) 99,11 %
02.09.2018 15:00 24,3 C 24,3 C 21,8 C 51 % 1020,9 hPa 0,0 l/m 1,00 h 0,00 h 661 W/m 10,5 km/h (2 Bft) 98,42 %
02.09.2018 16:00 25,1 C 27,2 C 22,0 C 49 % 1020,3 hPa 0,0 l/m 1,00 h 0,00 h 573 W/m 10,0 km/h (2 Bft) 95,91 %
02.09.2018 17:00 25,4 C 26,2 C 22,0 C 49 % 1019,8 hPa 0,0 l/m 0,90 h 0,00 h 426 W/m 9,0 km/h (2 Bft) 98,50 %
02.09.2018 18:00 24,9 C 24,2 C 21,7 C 49 % 1019,5 hPa 0,0 l/m 0,73 h 0,00 h 227 W/m 9,1 km/h (2 Bft) 98,00 %
02.09.2018 19:00 23,4 C 22,2 C 20,7 C 52 % 1019,2 hPa 0,0 l/m 0,40 h 0,00 h 42 W/m 7,9 km/h (2 Bft) 97,03 %
02.09.2018 20:00 22,2 C 21,0 C 20,3 C 54 % 1019,2 hPa 0,0 l/m 0,00 h 0,00 h 10 W/m 8,1 km/h (2 Bft) 98,14 %
02.09.2018 21:00 21,3 C 20,1 C 19,2 C 56 % 1019,4 hPa 0,0 l/m 0,00 h 0,00 h 0 W/m 7,8 km/h (2 Bft) 97,86 %
02.09.2018 22:00 20,5 C 19,3 C 18,7 C 58 % 1019,3 hPa 0,0 l/m 0,00 h 0,00 h 0 W/m 7,2 km/h (2 Bft) 96,35 %
02.09.2018 23:00 19,9 C 18,8 C 18,2 C 62 % 1019,1 hPa 0,0 l/m 0,00 h 0,00 h 0 W/m 5,0 km/h (1 Bft) 97,57 %
Min-Datum _ 01.09.18 01.09.18 01.09.18 01.09.18 27.08.18 - - - - 27.08.18 29.08.18
_ Min-Zeit 07:14 06:04 07:04 16:54 05:42 - - - - 06:26 13:14
Minimum _ 8,3 C 7,2 C 7,8 C 47 % 1006,1 hPa - - - - 0,0 km/h (0 Bft) 52,38 %
Max-Datum _ 29.08.18 29.08.18 29.08.18 30.08.18 01.09.18 30.08.18 30.08.18 27.08.18 01.09.18 29.08.18 27.08.18
_ Max-Zeit 13:24 11:32 13:10 05:36 11:50 00:22 18:52 04:05 14:24 23:46 00:02
Maximum _ 27,4 C 33,9 C 23,9 C 99 % 1025,2 hPa 2,6 l/m 0,07 h 0,08 h 860 W/m 31,5 km/h
NW (5 Bft)
100,00 %
Durchschnitt _ 17,1 C 17,2 C 15,6 C 77 % 1017,3 hPa #9,2 l/m #41:20 h #9:35 h 245 W/m 5,3 km/h (1 Bft) 97,52 %
© 2018 W. Hausmann